sensor_id;sensor_type;location;lat;lon;timestamp;P1;durP1;ratioP1;P2;durP2;ratioP2
64353;SDS011;50681;53.334;-6.536;2023-07-30T00:01:40;16.63;;;2.43;;
64353;SDS011;50681;53.334;-6.536;2023-07-30T00:04:05;13.73;;;2.63;;
64353;SDS011;50681;53.334;-6.536;2023-07-30T00:06:31;18.93;;;3.70;;
64353;SDS011;50681;53.334;-6.536;2023-07-30T00:08:56;13.80;;;2.70;;
64353;SDS011;50681;53.334;-6.536;2023-07-30T00:11:22;12.33;;;2.43;;
64353;SDS011;50681;53.334;-6.536;2023-07-30T00:13:49;13.98;;;3.08;;
64353;SDS011;50681;53.334;-6.536;2023-07-30T00:16:15;17.13;;;2.78;;
64353;SDS011;50681;53.334;-6.536;2023-07-30T00:18:47;13.30;;;3.40;;
64353;SDS011;50681;53.334;-6.536;2023-07-30T00:21:14;15.77;;;2.90;;
64353;SDS011;50681;53.334;-6.536;2023-07-30T00:23:39;13.63;;;3.08;;
64353;SDS011;50681;53.334;-6.536;2023-07-30T00:26:05;15.38;;;2.60;;
64353;SDS011;50681;53.334;-6.536;2023-07-30T00:28:31;13.57;;;2.97;;
64353;SDS011;50681;53.334;-6.536;2023-07-30T00:30:57;10.43;;;2.20;;
64353;SDS011;50681;53.334;-6.536;2023-07-30T00:33:23;24.23;;;3.20;;
64353;SDS011;50681;53.334;-6.536;2023-07-30T00:35:50;16.52;;;2.63;;
64353;SDS011;50681;53.334;-6.536;2023-07-30T00:38:17;16.02;;;2.60;;
64353;SDS011;50681;53.334;-6.536;2023-07-30T00:40:44;16.00;;;2.13;;
64353;SDS011;50681;53.334;-6.536;2023-07-30T00:43:12;11.75;;;2.50;;
64353;SDS011;50681;53.334;-6.536;2023-07-30T00:45:40;10.10;;;2.80;;
64353;SDS011;50681;53.334;-6.536;2023-07-30T00:48:09;12.57;;;2.80;;
64353;SDS011;50681;53.334;-6.536;2023-07-30T00:50:35;12.10;;;2.30;;
64353;SDS011;50681;53.334;-6.536;2023-07-30T00:53:02;16.38;;;2.40;;
64353;SDS011;50681;53.334;-6.536;2023-07-30T00:55:27;22.40;;;2.57;;
64353;SDS011;50681;53.334;-6.536;2023-07-30T01:00:44;14.25;;;2.90;;
64353;SDS011;50681;53.334;-6.536;2023-07-30T01:03:10;11.87;;;2.73;;
64353;SDS011;50681;53.334;-6.536;2023-07-30T01:05:37;18.92;;;3.00;;
64353;SDS011;50681;53.334;-6.536;2023-07-30T01:08:03;12.98;;;2.60;;
64353;SDS011;50681;53.334;-6.536;2023-07-30T01:10:29;18.80;;;2.92;;
64353;SDS011;50681;53.334;-6.536;2023-07-30T01:12:57;13.07;;;3.10;;
64353;SDS011;50681;53.334;-6.536;2023-07-30T01:15:25;15.20;;;2.78;;
64353;SDS011;50681;53.334;-6.536;2023-07-30T01:17:51;16.58;;;2.47;;
64353;SDS011;50681;53.334;-6.536;2023-07-30T01:20:31;10.40;;;2.30;;
64353;SDS011;50681;53.334;-6.536;2023-07-30T01:22:57;11.43;;;2.42;;
64353;SDS011;50681;53.334;-6.536;2023-07-30T01:25:23;17.77;;;2.63;;
64353;SDS011;50681;53.334;-6.536;2023-07-30T01:36:31;14.85;;;2.70;;
64353;SDS011;50681;53.334;-6.536;2023-07-30T01:38:58;12.60;;;2.72;;
64353;SDS011;50681;53.334;-6.536;2023-07-30T01:41:26;9.90;;;2.40;;
64353;SDS011;50681;53.334;-6.536;2023-07-30T01:43:53;19.02;;;3.00;;
64353;SDS011;50681;53.334;-6.536;2023-07-30T01:46:21;15.30;;;2.95;;
64353;SDS011;50681;53.334;-6.536;2023-07-30T01:48:49;18.85;;;3.20;;
64353;SDS011;50681;53.334;-6.536;2023-07-30T01:51:15;18.17;;;3.40;;
64353;SDS011;50681;53.334;-6.536;2023-07-30T01:53:40;10.83;;;2.43;;
64353;SDS011;50681;53.334;-6.536;2023-07-30T01:56:07;15.57;;;2.97;;
64353;SDS011;50681;53.334;-6.536;2023-07-30T01:58:32;17.87;;;3.30;;
64353;SDS011;50681;53.334;-6.536;2023-07-30T02:00:59;14.30;;;2.40;;
64353;SDS011;50681;53.334;-6.536;2023-07-30T02:03:24;10.87;;;2.47;;
64353;SDS011;50681;53.334;-6.536;2023-07-30T02:05:56;15.10;;;2.50;;
64353;SDS011;50681;53.334;-6.536;2023-07-30T02:08:24;14.27;;;2.60;;
64353;SDS011;50681;53.334;-6.536;2023-07-30T02:10:56;12.07;;;2.15;;
64353;SDS011;50681;53.334;-6.536;2023-07-30T02:13:23;10.82;;;1.98;;
64353;SDS011;50681;53.334;-6.536;2023-07-30T02:15:49;14.77;;;2.70;;
64353;SDS011;50681;53.334;-6.536;2023-07-30T02:18:15;17.63;;;3.05;;
64353;SDS011;50681;53.334;-6.536;2023-07-30T02:20:40;27.70;;;2.83;;
64353;SDS011;50681;53.334;-6.536;2023-07-30T02:23:07;14.77;;;2.90;;
64353;SDS011;50681;53.334;-6.536;2023-07-30T02:25:33;21.67;;;2.83;;
64353;SDS011;50681;53.334;-6.536;2023-07-30T02:27:59;18.52;;;2.67;;
64353;SDS011;50681;53.334;-6.536;2023-07-30T02:32:51;12.68;;;2.90;;
64353;SDS011;50681;53.334;-6.536;2023-07-30T02:35:16;15.83;;;2.70;;
64353;SDS011;50681;53.334;-6.536;2023-07-30T02:37:42;16.13;;;2.90;;
64353;SDS011;50681;53.334;-6.536;2023-07-30T02:40:09;12.73;;;2.40;;
64353;SDS011;50681;53.334;-6.536;2023-07-30T02:42:35;16.75;;;2.70;;
64353;SDS011;50681;53.334;-6.536;2023-07-30T02:45:01;12.77;;;2.93;;
64353;SDS011;50681;53.334;-6.536;2023-07-30T02:47:27;12.43;;;2.80;;
64353;SDS011;50681;53.334;-6.536;2023-07-30T02:49:56;14.83;;;2.40;;
64353;SDS011;50681;53.334;-6.536;2023-07-30T02:52:22;21.10;;;3.40;;
64353;SDS011;50681;53.334;-6.536;2023-07-30T02:54:47;26.80;;;2.87;;
64353;SDS011;50681;53.334;-6.536;2023-07-30T02:57:13;14.52;;;2.55;;
64353;SDS011;50681;53.334;-6.536;2023-07-30T02:59:39;12.90;;;2.30;;
64353;SDS011;50681;53.334;-6.536;2023-07-30T03:02:06;17.52;;;2.67;;
64353;SDS011;50681;53.334;-6.536;2023-07-30T03:04:32;17.50;;;2.40;;
64353;SDS011;50681;53.334;-6.536;2023-07-30T03:06:58;10.57;;;2.25;;
64353;SDS011;50681;53.334;-6.536;2023-07-30T03:09:24;16.05;;;2.47;;
64353;SDS011;50681;53.334;-6.536;2023-07-30T03:11:51;18.60;;;2.40;;
64353;SDS011;50681;53.334;-6.536;2023-07-30T03:14:17;15.70;;;2.40;;
64353;SDS011;50681;53.334;-6.536;2023-07-30T03:16:45;25.83;;;2.70;;
64353;SDS011;50681;53.334;-6.536;2023-07-30T03:19:14;11.98;;;2.22;;
64353;SDS011;50681;53.334;-6.536;2023-07-30T03:21:40;9.15;;;1.85;;
64353;SDS011;50681;53.334;-6.536;2023-07-30T03:24:12;13.68;;;2.75;;
64353;SDS011;50681;53.334;-6.536;2023-07-30T03:26:37;13.67;;;2.00;;
64353;SDS011;50681;53.334;-6.536;2023-07-30T03:29:02;11.27;;;2.33;;
64353;SDS011;50681;53.334;-6.536;2023-07-30T03:31:28;12.30;;;2.50;;
64353;SDS011;50681;53.334;-6.536;2023-07-30T03:33:53;14.10;;;2.70;;
64353;SDS011;50681;53.334;-6.536;2023-07-30T03:36:22;9.40;;;2.08;;
64353;SDS011;50681;53.334;-6.536;2023-07-30T03:38:49;7.93;;;2.22;;
64353;SDS011;50681;53.334;-6.536;2023-07-30T03:41:14;10.68;;;2.10;;
64353;SDS011;50681;53.334;-6.536;2023-07-30T03:43:40;10.47;;;1.90;;
64353;SDS011;50681;53.334;-6.536;2023-07-30T03:46:05;12.87;;;1.87;;
64353;SDS011;50681;53.334;-6.536;2023-07-30T03:48:31;16.20;;;2.30;;
64353;SDS011;50681;53.334;-6.536;2023-07-30T03:50:56;17.20;;;2.33;;
64353;SDS011;50681;53.334;-6.536;2023-07-30T03:53:22;14.48;;;2.33;;
64353;SDS011;50681;53.334;-6.536;2023-07-30T03:55:47;14.68;;;2.13;;
64353;SDS011;50681;53.334;-6.536;2023-07-30T03:58:13;9.80;;;2.28;;
64353;SDS011;50681;53.334;-6.536;2023-07-30T04:00:39;15.32;;;2.50;;
64353;SDS011;50681;53.334;-6.536;2023-07-30T04:03:05;13.38;;;2.17;;
64353;SDS011;50681;53.334;-6.536;2023-07-30T04:05:31;13.48;;;2.25;;
64353;SDS011;50681;53.334;-6.536;2023-07-30T04:07:56;13.73;;;2.47;;
64353;SDS011;50681;53.334;-6.536;2023-07-30T04:10:22;16.07;;;2.47;;
64353;SDS011;50681;53.334;-6.536;2023-07-30T04:12:48;14.38;;;2.28;;
64353;SDS011;50681;53.334;-6.536;2023-07-30T04:15:15;15.23;;;2.75;;
64353;SDS011;50681;53.334;-6.536;2023-07-30T04:17:41;15.30;;;2.40;;
64353;SDS011;50681;53.334;-6.536;2023-07-30T04:20:07;17.05;;;2.55;;
64353;SDS011;50681;53.334;-6.536;2023-07-30T04:22:34;17.02;;;2.40;;
64353;SDS011;50681;53.334;-6.536;2023-07-30T04:25:00;16.35;;;2.58;;
64353;SDS011;50681;53.334;-6.536;2023-07-30T04:27:26;18.13;;;2.50;;
64353;SDS011;50681;53.334;-6.536;2023-07-30T04:29:54;22.05;;;3.20;;
64353;SDS011;50681;53.334;-6.536;2023-07-30T04:32:19;19.80;;;2.23;;
64353;SDS011;50681;53.334;-6.536;2023-07-30T04:34:45;12.50;;;2.17;;
64353;SDS011;50681;53.334;-6.536;2023-07-30T04:37:11;10.52;;;2.03;;
64353;SDS011;50681;53.334;-6.536;2023-07-30T04:39:37;12.13;;;2.20;;
64353;SDS011;50681;53.334;-6.536;2023-07-30T04:42:02;21.37;;;3.23;;
64353;SDS011;50681;53.334;-6.536;2023-07-30T04:44:28;10.65;;;2.25;;
64353;SDS011;50681;53.334;-6.536;2023-07-30T04:46:54;12.93;;;2.10;;
64353;SDS011;50681;53.334;-6.536;2023-07-30T04:49:19;13.97;;;2.00;;
64353;SDS011;50681;53.334;-6.536;2023-07-30T04:51:45;9.83;;;1.83;;
64353;SDS011;50681;53.334;-6.536;2023-07-30T04:54:10;10.23;;;2.67;;
64353;SDS011;50681;53.334;-6.536;2023-07-30T04:56:36;16.00;;;2.37;;
64353;SDS011;50681;53.334;-6.536;2023-07-30T04:59:01;22.00;;;2.67;;
64353;SDS011;50681;53.334;-6.536;2023-07-30T05:01:27;14.73;;;2.25;;
64353;SDS011;50681;53.334;-6.536;2023-07-30T05:03:53;13.53;;;1.83;;
64353;SDS011;50681;53.334;-6.536;2023-07-30T05:06:18;19.55;;;2.00;;
64353;SDS011;50681;53.334;-6.536;2023-07-30T05:08:44;9.57;;;1.60;;
64353;SDS011;50681;53.334;-6.536;2023-07-30T05:11:09;11.73;;;1.60;;
64353;SDS011;50681;53.334;-6.536;2023-07-30T05:13:35;11.63;;;2.00;;
64353;SDS011;50681;53.334;-6.536;2023-07-30T05:16:00;13.52;;;1.80;;
64353;SDS011;50681;53.334;-6.536;2023-07-30T05:18:26;6.25;;;1.63;;
64353;SDS011;50681;53.334;-6.536;2023-07-30T05:20:52;7.45;;;1.08;;
64353;SDS011;50681;53.334;-6.536;2023-07-30T05:23:18;10.60;;;1.70;;
64353;SDS011;50681;53.334;-6.536;2023-07-30T05:25:44;9.50;;;1.85;;
64353;SDS011;50681;53.334;-6.536;2023-07-30T05:28:10;8.70;;;1.50;;
64353;SDS011;50681;53.334;-6.536;2023-07-30T05:30:35;11.30;;;1.87;;
64353;SDS011;50681;53.334;-6.536;2023-07-30T05:33:01;8.33;;;1.73;;
64353;SDS011;50681;53.334;-6.536;2023-07-30T05:35:26;10.33;;;1.67;;
64353;SDS011;50681;53.334;-6.536;2023-07-30T05:37:52;7.82;;;1.25;;
64353;SDS011;50681;53.334;-6.536;2023-07-30T05:40:17;7.83;;;1.63;;
64353;SDS011;50681;53.334;-6.536;2023-07-30T05:42:43;5.82;;;1.77;;
64353;SDS011;50681;53.334;-6.536;2023-07-30T05:45:12;5.88;;;1.63;;
64353;SDS011;50681;53.334;-6.536;2023-07-30T05:47:38;6.20;;;1.80;;
64353;SDS011;50681;53.334;-6.536;2023-07-30T05:50:06;5.40;;;1.50;;
64353;SDS011;50681;53.334;-6.536;2023-07-30T05:52:35;8.13;;;1.70;;
64353;SDS011;50681;53.334;-6.536;2023-07-30T05:55:00;7.33;;;1.57;;
64353;SDS011;50681;53.334;-6.536;2023-07-30T05:59:58;11.48;;;2.03;;
64353;SDS011;50681;53.334;-6.536;2023-07-30T06:02:23;4.57;;;1.00;;
64353;SDS011;50681;53.334;-6.536;2023-07-30T06:04:55;10.52;;;1.55;;
64353;SDS011;50681;53.334;-6.536;2023-07-30T06:07:20;6.78;;;1.58;;
64353;SDS011;50681;53.334;-6.536;2023-07-30T06:09:46;7.97;;;1.42;;
64353;SDS011;50681;53.334;-6.536;2023-07-30T06:12:12;9.40;;;1.73;;
64353;SDS011;50681;53.334;-6.536;2023-07-30T06:14:37;6.90;;;1.40;;
64353;SDS011;50681;53.334;-6.536;2023-07-30T06:17:03;4.77;;;1.30;;
64353;SDS011;50681;53.334;-6.536;2023-07-30T06:19:32;9.00;;;1.45;;
64353;SDS011;50681;53.334;-6.536;2023-07-30T06:22:00;10.77;;;1.20;;
64353;SDS011;50681;53.334;-6.536;2023-07-30T06:24:28;9.25;;;1.60;;
64353;SDS011;50681;53.334;-6.536;2023-07-30T06:44:25;8.45;;;1.58;;
64353;SDS011;50681;53.334;-6.536;2023-07-30T06:46:51;8.00;;;1.65;;
64353;SDS011;50681;53.334;-6.536;2023-07-30T06:49:16;5.60;;;1.50;;
64353;SDS011;50681;53.334;-6.536;2023-07-30T06:51:43;12.23;;;2.00;;
64353;SDS011;50681;53.334;-6.536;2023-07-30T06:54:10;5.63;;;1.33;;
64353;SDS011;50681;53.334;-6.536;2023-07-30T06:56:35;11.15;;;1.98;;
64353;SDS011;50681;53.334;-6.536;2023-07-30T06:59:02;9.40;;;1.65;;
64353;SDS011;50681;53.334;-6.536;2023-07-30T07:01:28;10.52;;;1.40;;
64353;SDS011;50681;53.334;-6.536;2023-07-30T07:03:58;8.85;;;1.63;;
64353;SDS011;50681;53.334;-6.536;2023-07-30T07:06:24;9.13;;;1.52;;
64353;SDS011;50681;53.334;-6.536;2023-07-30T07:08:49;11.40;;;2.00;;
64353;SDS011;50681;53.334;-6.536;2023-07-30T07:11:15;9.60;;;1.80;;
64353;SDS011;50681;53.334;-6.536;2023-07-30T07:13:42;9.20;;;1.60;;
64353;SDS011;50681;53.334;-6.536;2023-07-30T07:16:07;14.10;;;1.77;;
64353;SDS011;50681;53.334;-6.536;2023-07-30T07:18:34;14.98;;;1.50;;
64353;SDS011;50681;53.334;-6.536;2023-07-30T07:20:59;9.77;;;1.40;;
64353;SDS011;50681;53.334;-6.536;2023-07-30T07:23:25;6.43;;;1.23;;
64353;SDS011;50681;53.334;-6.536;2023-07-30T07:25:52;13.50;;;1.47;;
64353;SDS011;50681;53.334;-6.536;2023-07-30T07:28:18;8.40;;;1.58;;
64353;SDS011;50681;53.334;-6.536;2023-07-30T07:30:44;10.80;;;1.30;;
64353;SDS011;50681;53.334;-6.536;2023-07-30T07:33:11;7.20;;;1.50;;
64353;SDS011;50681;53.334;-6.536;2023-07-30T07:35:40;7.18;;;1.40;;
64353;SDS011;50681;53.334;-6.536;2023-07-30T07:38:06;10.20;;;2.00;;
64353;SDS011;50681;53.334;-6.536;2023-07-30T07:40:38;9.43;;;1.63;;
64353;SDS011;50681;53.334;-6.536;2023-07-30T07:43:07;5.78;;;1.10;;
64353;SDS011;50681;53.334;-6.536;2023-07-30T07:47:59;18.35;;;1.70;;
64353;SDS011;50681;53.334;-6.536;2023-07-30T07:50:25;9.75;;;1.48;;
64353;SDS011;50681;53.334;-6.536;2023-07-30T07:52:53;14.50;;;1.27;;
64353;SDS011;50681;53.334;-6.536;2023-07-30T07:55:19;4.70;;;1.17;;
64353;SDS011;50681;53.334;-6.536;2023-07-30T07:57:50;11.27;;;1.50;;
64353;SDS011;50681;53.334;-6.536;2023-07-30T08:00:24;6.70;;;1.10;;
64353;SDS011;50681;53.334;-6.536;2023-07-30T08:02:52;8.63;;;1.10;;
64353;SDS011;50681;53.334;-6.536;2023-07-30T08:05:17;6.70;;;1.53;;
64353;SDS011;50681;53.334;-6.536;2023-07-30T08:07:45;10.40;;;1.42;;
64353;SDS011;50681;53.334;-6.536;2023-07-30T08:10:13;4.95;;;0.85;;
64353;SDS011;50681;53.334;-6.536;2023-07-30T08:12:38;8.35;;;1.10;;
64353;SDS011;50681;53.334;-6.536;2023-07-30T08:15:04;3.80;;;0.90;;
64353;SDS011;50681;53.334;-6.536;2023-07-30T08:17:29;3.53;;;1.38;;
64353;SDS011;50681;53.334;-6.536;2023-07-30T08:19:55;6.67;;;1.27;;
64353;SDS011;50681;53.334;-6.536;2023-07-30T08:22:22;4.60;;;0.88;;
64353;SDS011;50681;53.334;-6.536;2023-07-30T08:24:47;5.25;;;1.42;;
64353;SDS011;50681;53.334;-6.536;2023-07-30T08:27:14;5.43;;;1.23;;
64353;SDS011;50681;53.334;-6.536;2023-07-30T08:29:46;5.60;;;1.40;;
64353;SDS011;50681;53.334;-6.536;2023-07-30T08:32:12;3.95;;;0.88;;
64353;SDS011;50681;53.334;-6.536;2023-07-30T08:34:38;5.13;;;1.02;;
64353;SDS011;50681;53.334;-6.536;2023-07-30T08:37:10;7.18;;;1.02;;
64353;SDS011;50681;53.334;-6.536;2023-07-30T08:39:37;6.75;;;1.27;;
64353;SDS011;50681;53.334;-6.536;2023-07-30T08:42:03;5.13;;;1.10;;
64353;SDS011;50681;53.334;-6.536;2023-07-30T08:44:29;4.05;;;0.80;;
64353;SDS011;50681;53.334;-6.536;2023-07-30T08:49:20;4.05;;;0.85;;
64353;SDS011;50681;53.334;-6.536;2023-07-30T08:51:46;4.72;;;0.70;;
64353;SDS011;50681;53.334;-6.536;2023-07-30T08:54:17;6.20;;;1.35;;
64353;SDS011;50681;53.334;-6.536;2023-07-30T08:56:45;4.15;;;1.30;;
64353;SDS011;50681;53.334;-6.536;2023-07-30T08:59:12;3.03;;;0.98;;
64353;SDS011;50681;53.334;-6.536;2023-07-30T09:01:40;6.70;;;1.17;;
64353;SDS011;50681;53.334;-6.536;2023-07-30T09:04:07;7.13;;;1.30;;
64353;SDS011;50681;53.334;-6.536;2023-07-30T09:06:34;3.60;;;0.90;;
64353;SDS011;50681;53.334;-6.536;2023-07-30T09:08:59;6.82;;;1.10;;
64353;SDS011;50681;53.334;-6.536;2023-07-30T09:11:28;8.20;;;1.60;;
64353;SDS011;50681;53.334;-6.536;2023-07-30T09:13:54;9.95;;;1.58;;
64353;SDS011;50681;53.334;-6.536;2023-07-30T09:16:24;6.82;;;1.42;;
64353;SDS011;50681;53.334;-6.536;2023-07-30T09:18:50;4.00;;;0.82;;
64353;SDS011;50681;53.334;-6.536;2023-07-30T09:21:19;6.88;;;1.30;;
64353;SDS011;50681;53.334;-6.536;2023-07-30T09:23:45;10.50;;;1.70;;
64353;SDS011;50681;53.334;-6.536;2023-07-30T09:26:11;10.90;;;1.50;;
64353;SDS011;50681;53.334;-6.536;2023-07-30T09:28:39;7.40;;;2.40;;
64353;SDS011;50681;53.334;-6.536;2023-07-30T09:31:06;9.10;;;2.13;;
64353;SDS011;50681;53.334;-6.536;2023-07-30T09:33:33;11.18;;;1.63;;
64353;SDS011;50681;53.334;-6.536;2023-07-30T09:36:05;7.82;;;2.03;;
64353;SDS011;50681;53.334;-6.536;2023-07-30T09:38:40;9.35;;;2.03;;
64353;SDS011;50681;53.334;-6.536;2023-07-30T09:41:11;9.00;;;1.95;;
64353;SDS011;50681;53.334;-6.536;2023-07-30T09:43:39;8.77;;;2.50;;
64353;SDS011;50681;53.334;-6.536;2023-07-30T09:46:05;8.93;;;2.20;;
64353;SDS011;50681;53.334;-6.536;2023-07-30T09:48:32;12.02;;;2.67;;
64353;SDS011;50681;53.334;-6.536;2023-07-30T09:51:00;10.52;;;2.20;;
64353;SDS011;50681;53.334;-6.536;2023-07-30T09:53:30;9.30;;;1.73;;
64353;SDS011;50681;53.334;-6.536;2023-07-30T09:56:02;16.65;;;2.47;;
64353;SDS011;50681;53.334;-6.536;2023-07-30T09:58:29;13.27;;;2.50;;
64353;SDS011;50681;53.334;-6.536;2023-07-30T10:00:57;11.55;;;2.13;;
64353;SDS011;50681;53.334;-6.536;2023-07-30T10:03:24;13.88;;;2.30;;
64353;SDS011;50681;53.334;-6.536;2023-07-30T10:08:20;7.60;;;2.15;;
64353;SDS011;50681;53.334;-6.536;2023-07-30T10:10:49;9.85;;;1.98;;
64353;SDS011;50681;53.334;-6.536;2023-07-30T10:13:18;11.75;;;2.42;;
64353;SDS011;50681;53.334;-6.536;2023-07-30T10:15:45;8.43;;;2.38;;
64353;SDS011;50681;53.334;-6.536;2023-07-30T10:18:11;13.38;;;2.60;;
64353;SDS011;50681;53.334;-6.536;2023-07-30T10:20:37;9.18;;;1.75;;
64353;SDS011;50681;53.334;-6.536;2023-07-30T10:23:10;16.15;;;2.75;;
64353;SDS011;50681;53.334;-6.536;2023-07-30T10:25:43;9.97;;;2.47;;
64353;SDS011;50681;53.334;-6.536;2023-07-30T10:28:26;14.32;;;2.42;;
64353;SDS011;50681;53.334;-6.536;2023-07-30T10:30:59;10.02;;;2.25;;
64353;SDS011;50681;53.334;-6.536;2023-07-30T10:36:17;7.88;;;1.83;;
64353;SDS011;50681;53.334;-6.536;2023-07-30T10:38:51;10.43;;;2.40;;
64353;SDS011;50681;53.334;-6.536;2023-07-30T10:41:18;9.00;;;2.53;;
64353;SDS011;50681;53.334;-6.536;2023-07-30T10:43:53;14.27;;;2.50;;
64353;SDS011;50681;53.334;-6.536;2023-07-30T10:46:19;11.30;;;2.55;;
64353;SDS011;50681;53.334;-6.536;2023-07-30T10:48:45;14.68;;;2.53;;
64353;SDS011;50681;53.334;-6.536;2023-07-30T10:51:13;6.07;;;2.25;;
64353;SDS011;50681;53.334;-6.536;2023-07-30T10:53:43;12.73;;;2.55;;
64353;SDS011;50681;53.334;-6.536;2023-07-30T10:56:12;11.75;;;2.38;;
64353;SDS011;50681;53.334;-6.536;2023-07-30T10:58:38;8.77;;;2.30;;
64353;SDS011;50681;53.334;-6.536;2023-07-30T11:01:05;8.65;;;2.55;;
64353;SDS011;50681;53.334;-6.536;2023-07-30T11:03:31;9.73;;;2.53;;
64353;SDS011;50681;53.334;-6.536;2023-07-30T11:05:57;9.75;;;2.40;;
64353;SDS011;50681;53.334;-6.536;2023-07-30T11:08:39;6.18;;;2.28;;
64353;SDS011;50681;53.334;-6.536;2023-07-30T11:11:09;8.48;;;2.42;;
64353;SDS011;50681;53.334;-6.536;2023-07-30T11:13:36;7.75;;;2.28;;
64353;SDS011;50681;53.334;-6.536;2023-07-30T11:16:05;9.52;;;2.30;;
64353;SDS011;50681;53.334;-6.536;2023-07-30T11:18:32;8.98;;;2.45;;
64353;SDS011;50681;53.334;-6.536;2023-07-30T11:21:05;7.82;;;2.35;;
64353;SDS011;50681;53.334;-6.536;2023-07-30T11:23:32;8.80;;;2.60;;
64353;SDS011;50681;53.334;-6.536;2023-07-30T11:25:59;11.70;;;3.00;;
64353;SDS011;50681;53.334;-6.536;2023-07-30T11:28:46;16.35;;;2.30;;
64353;SDS011;50681;53.334;-6.536;2023-07-30T11:31:20;9.20;;;2.60;;
64353;SDS011;50681;53.334;-6.536;2023-07-30T11:33:47;7.88;;;2.30;;
64353;SDS011;50681;53.334;-6.536;2023-07-30T11:36:18;10.30;;;2.58;;
64353;SDS011;50681;53.334;-6.536;2023-07-30T11:38:46;8.00;;;2.50;;
64353;SDS011;50681;53.334;-6.536;2023-07-30T11:41:13;6.53;;;2.38;;
64353;SDS011;50681;53.334;-6.536;2023-07-30T11:43:41;6.10;;;2.30;;
64353;SDS011;50681;53.334;-6.536;2023-07-30T11:48:34;6.35;;;2.40;;
64353;SDS011;50681;53.334;-6.536;2023-07-30T11:51:00;7.15;;;2.20;;
64353;SDS011;50681;53.334;-6.536;2023-07-30T11:58:55;9.13;;;2.63;;
64353;SDS011;50681;53.334;-6.536;2023-07-30T12:01:24;7.03;;;2.20;;
64353;SDS011;50681;53.334;-6.536;2023-07-30T12:03:50;6.53;;;2.40;;
64353;SDS011;50681;53.334;-6.536;2023-07-30T12:06:19;6.88;;;2.10;;
64353;SDS011;50681;53.334;-6.536;2023-07-30T12:08:44;5.05;;;1.70;;
64353;SDS011;50681;53.334;-6.536;2023-07-30T12:11:13;5.85;;;2.20;;
64353;SDS011;50681;53.334;-6.536;2023-07-30T12:13:43;7.13;;;2.38;;
64353;SDS011;50681;53.334;-6.536;2023-07-30T12:16:13;7.95;;;2.40;;
64353;SDS011;50681;53.334;-6.536;2023-07-30T12:18:39;7.13;;;2.30;;
64353;SDS011;50681;53.334;-6.536;2023-07-30T12:21:12;12.75;;;2.40;;
64353;SDS011;50681;53.334;-6.536;2023-07-30T12:23:37;8.02;;;2.17;;
64353;SDS011;50681;53.334;-6.536;2023-07-30T12:26:03;7.25;;;2.42;;
64353;SDS011;50681;53.334;-6.536;2023-07-30T12:28:32;9.18;;;2.50;;
64353;SDS011;50681;53.334;-6.536;2023-07-30T12:30:59;7.43;;;2.35;;
64353;SDS011;50681;53.334;-6.536;2023-07-30T12:33:25;8.73;;;2.28;;
64353;SDS011;50681;53.334;-6.536;2023-07-30T12:35:50;6.32;;;1.85;;
64353;SDS011;50681;53.334;-6.536;2023-07-30T12:38:16;8.07;;;2.55;;
64353;SDS011;50681;53.334;-6.536;2023-07-30T12:40:43;5.70;;;2.30;;
64353;SDS011;50681;53.334;-6.536;2023-07-30T12:43:09;5.53;;;2.10;;
64353;SDS011;50681;53.334;-6.536;2023-07-30T12:45:34;6.05;;;2.30;;
64353;SDS011;50681;53.334;-6.536;2023-07-30T12:48:00;8.50;;;2.20;;
64353;SDS011;50681;53.334;-6.536;2023-07-30T12:50:26;5.78;;;2.13;;
64353;SDS011;50681;53.334;-6.536;2023-07-30T12:52:51;4.60;;;2.05;;
64353;SDS011;50681;53.334;-6.536;2023-07-30T12:55:17;5.85;;;1.98;;
64353;SDS011;50681;53.334;-6.536;2023-07-30T12:57:42;6.70;;;2.28;;
64353;SDS011;50681;53.334;-6.536;2023-07-30T13:00:09;13.23;;;2.38;;
64353;SDS011;50681;53.334;-6.536;2023-07-30T13:02:35;5.15;;;1.88;;
64353;SDS011;50681;53.334;-6.536;2023-07-30T13:05:01;6.70;;;2.30;;
64353;SDS011;50681;53.334;-6.536;2023-07-30T13:07:28;8.20;;;2.33;;
64353;SDS011;50681;53.334;-6.536;2023-07-30T13:10:04;5.72;;;2.15;;
64353;SDS011;50681;53.334;-6.536;2023-07-30T13:12:33;5.10;;;2.00;;
64353;SDS011;50681;53.334;-6.536;2023-07-30T13:14:59;4.72;;;1.73;;
64353;SDS011;50681;53.334;-6.536;2023-07-30T13:17:24;6.10;;;2.03;;
64353;SDS011;50681;53.334;-6.536;2023-07-30T13:19:50;5.28;;;2.35;;
64353;SDS011;50681;53.334;-6.536;2023-07-30T13:22:15;3.77;;;1.57;;
64353;SDS011;50681;53.334;-6.536;2023-07-30T13:24:41;6.43;;;2.33;;
64353;SDS011;50681;53.334;-6.536;2023-07-30T13:27:06;5.60;;;1.80;;
64353;SDS011;50681;53.334;-6.536;2023-07-30T13:29:32;4.33;;;1.47;;
64353;SDS011;50681;53.334;-6.536;2023-07-30T13:31:57;5.07;;;2.03;;
64353;SDS011;50681;53.334;-6.536;2023-07-30T13:34:23;3.65;;;1.45;;
64353;SDS011;50681;53.334;-6.536;2023-07-30T13:36:49;3.67;;;1.33;;
64353;SDS011;50681;53.334;-6.536;2023-07-30T13:39:15;3.22;;;1.35;;
64353;SDS011;50681;53.334;-6.536;2023-07-30T13:41:40;4.73;;;1.43;;
64353;SDS011;50681;53.334;-6.536;2023-07-30T13:44:06;2.25;;;1.10;;
64353;SDS011;50681;53.334;-6.536;2023-07-30T13:46:32;3.40;;;1.50;;
64353;SDS011;50681;53.334;-6.536;2023-07-30T13:49:00;2.45;;;1.13;;
64353;SDS011;50681;53.334;-6.536;2023-07-30T13:51:26;3.97;;;1.40;;
64353;SDS011;50681;53.334;-6.536;2023-07-30T13:53:58;2.63;;;1.10;;
64353;SDS011;50681;53.334;-6.536;2023-07-30T13:56:29;4.25;;;1.40;;
64353;SDS011;50681;53.334;-6.536;2023-07-30T13:58:55;3.17;;;1.60;;
64353;SDS011;50681;53.334;-6.536;2023-07-30T14:01:21;3.90;;;1.33;;
64353;SDS011;50681;53.334;-6.536;2023-07-30T14:03:48;3.60;;;1.42;;
64353;SDS011;50681;53.334;-6.536;2023-07-30T14:06:14;3.22;;;1.15;;
64353;SDS011;50681;53.334;-6.536;2023-07-30T14:08:39;13.93;;;1.20;;
64353;SDS011;50681;53.334;-6.536;2023-07-30T14:11:05;2.70;;;1.10;;
64353;SDS011;50681;53.334;-6.536;2023-07-30T14:13:30;2.95;;;1.30;;
64353;SDS011;50681;53.334;-6.536;2023-07-30T14:15:55;5.65;;;1.38;;
64353;SDS011;50681;53.334;-6.536;2023-07-30T14:18:21;3.95;;;1.40;;
64353;SDS011;50681;53.334;-6.536;2023-07-30T14:20:47;4.95;;;1.77;;
64353;SDS011;50681;53.334;-6.536;2023-07-30T14:23:13;3.00;;;1.50;;
64353;SDS011;50681;53.334;-6.536;2023-07-30T14:25:39;3.00;;;1.55;;
64353;SDS011;50681;53.334;-6.536;2023-07-30T14:28:04;5.63;;;1.60;;
64353;SDS011;50681;53.334;-6.536;2023-07-30T14:30:30;5.03;;;1.50;;
64353;SDS011;50681;53.334;-6.536;2023-07-30T14:32:56;2.88;;;1.38;;
64353;SDS011;50681;53.334;-6.536;2023-07-30T14:35:23;6.22;;;1.73;;
64353;SDS011;50681;53.334;-6.536;2023-07-30T14:37:50;8.95;;;1.50;;
64353;SDS011;50681;53.334;-6.536;2023-07-30T14:40:16;5.03;;;1.77;;
64353;SDS011;50681;53.334;-6.536;2023-07-30T14:42:43;4.07;;;1.63;;
64353;SDS011;50681;53.334;-6.536;2023-07-30T14:45:09;6.20;;;1.60;;
64353;SDS011;50681;53.334;-6.536;2023-07-30T14:47:37;3.63;;;1.52;;
64353;SDS011;50681;53.334;-6.536;2023-07-30T14:50:04;2.75;;;1.40;;
64353;SDS011;50681;53.334;-6.536;2023-07-30T14:52:33;2.85;;;1.30;;
64353;SDS011;50681;53.334;-6.536;2023-07-30T14:54:59;5.93;;;2.83;;
64353;SDS011;50681;53.334;-6.536;2023-07-30T14:57:24;9.30;;;4.32;;
64353;SDS011;50681;53.334;-6.536;2023-07-30T14:59:50;8.15;;;3.53;;
64353;SDS011;50681;53.334;-6.536;2023-07-30T15:02:15;4.65;;;1.58;;
64353;SDS011;50681;53.334;-6.536;2023-07-30T15:04:42;3.88;;;1.42;;
64353;SDS011;50681;53.334;-6.536;2023-07-30T15:07:08;3.22;;;1.40;;
64353;SDS011;50681;53.334;-6.536;2023-07-30T15:09:34;4.45;;;1.52;;
64353;SDS011;50681;53.334;-6.536;2023-07-30T15:12:01;6.90;;;1.63;;
64353;SDS011;50681;53.334;-6.536;2023-07-30T15:14:27;3.05;;;1.50;;
64353;SDS011;50681;53.334;-6.536;2023-07-30T15:16:53;5.63;;;1.85;;
64353;SDS011;50681;53.334;-6.536;2023-07-30T15:19:21;3.38;;;1.83;;